Maersk Visby — 9V8827 — position and weather

sailwx.info

Track history (hours):
 
Tides and Currents Weather Stations Pressure Air Temp Water Temp Dewpoint Dewpoint Depression Visibility Wind Speed Wind Dir Waves Ship Positions

Maersk Visby

Last reported at 2014-Sep-19 12:33 UTC. Time now 2014-Sep-20 20:03 UTC.
Position S 30°15' E 030°54'.

Length 180 m; draft 9.1 m.

Type: Ship (hazmat cat C). MMSI: 564979000.

Date/timePositionNaut miles runAvg speedWind from/ knotsBaromVisibWave heightAir tempDewpointWater temp
2014-Sep-19 12:33S 30°15' E 030°54'1010.1
2014-Sep-19 11:32S 30°06' E 031°01'1110.7
2014-Sep-19 10:32S 29°58' E 031°08'7 6.8
2014-Sep-19 09:33S 29°52' E 031°03'3 2.1
2014-Sep-19 08:15S 29°53' E 031°00'0 0.0
2014-Sep-19 06:23S 29°53' E 031°00'0 0.0
2014-Sep-19 03:05S 29°53' E 031°00'0 0.0
2014-Sep-19 02:29S 29°53' E 031°00'0 0.0
2014-Sep-19 01:29S 29°53' E 031°00'0 0.0
2014-Sep-19 00:11S 29°53' E 031°00'0 0.0
2014-Sep-18 23:23S 29°53' E 031°00'0 0.0
2014-Sep-18 22:23S 29°53' E 031°00'0 0.0
2014-Sep-18 21:23S 29°53' E 031°00'0 0.0
2014-Sep-18 20:11S 29°53' E 031°00'0 0.0
2014-Sep-18 19:17S 29°53' E 031°00'0 0.0
2014-Sep-18 18:17S 29°53' E 031°00'0 0.0
2014-Sep-18 17:29S 29°53' E 031°00'0 0.0
2014-Sep-18 16:11S 29°53' E 031°00'0 0.0
2014-Sep-18 15:11S 29°53' E 031°00'0 0.0
2014-Sep-18 14:29S 29°53' E 031°00'0 0.0
2014-Sep-18 13:23S 29°53' E 031°00'0 0.0
2014-Sep-18 12:29S 29°53' E 031°00'0 0.0
2014-Sep-18 11:29S 29°53' E 031°00'0 0.0
2014-Sep-18 10:29S 29°53' E 031°00'0 0.0
2014-Sep-18 09:23S 29°53' E 031°00'0 0.0
2014-Sep-18 08:29S 29°53' E 031°00'0 0.0
2014-Sep-18 07:29S 29°53' E 031°00'0 0.0
2014-Sep-18 06:17S 29°53' E 031°00'0 0.0
2014-Sep-18 05:29S 29°53' E 031°00'0 0.0
2014-Sep-18 04:23S 29°53' E 031°00'0 0.0
2014-Sep-18 03:05S 29°53' E 031°00'0 0.0
2014-Sep-18 02:23S 29°53' E 031°00'0 0.0
2014-Sep-18 01:29S 29°53' E 031°00'0 0.0
2014-Sep-18 00:23S 29°53' E 031°00'0 0.0
2014-Sep-17 23:17S 29°53' E 031°00'0 0.0
2014-Sep-17 20:23S 29°53' E 031°00'0 0.0
2014-Sep-17 19:29S 29°53' E 031°00'0 0.0
2014-Sep-17 17:11S 29°53' E 031°00'0 0.0
2014-Sep-17 16:29S 29°53' E 031°00'0 0.0
2014-Sep-17 15:29S 29°53' E 031°00'0 0.0
2014-Sep-17 14:29S 29°53' E 031°00'0 0.0
2014-Sep-17 11:05S 29°53' E 031°00'0 0.0
2014-Sep-17 10:29S 29°53' E 031°00'0 0.0
2014-Sep-17 08:29S 29°53' E 031°00'0 0.0
2014-Sep-17 07:23S 29°53' E 031°00'0 0.0
2014-Sep-17 06:11S 29°53' E 031°00'0 0.0
2014-Sep-17 05:05S 29°53' E 031°00'0 0.0
2014-Sep-17 04:23S 29°53' E 031°00'0 0.0
2014-Sep-17 03:11S 29°53' E 031°00'0 0.0
2014-Sep-17 02:23S 29°53' E 031°00'0 0.0
2014-Sep-17 01:29S 29°53' E 031°00'0 0.0
2014-Sep-17 00:11S 29°53' E 031°00'0 0.0
2014-Sep-16 22:23S 29°53' E 031°00'0 0.0
2014-Sep-16 21:23S 29°53' E 031°00'0 0.0
2014-Sep-16 20:11S 29°53' E 031°00'0 0.0
2014-Sep-16 19:17S 29°53' E 031°00'0 0.0
2014-Sep-16 18:23S 29°53' E 031°00'0 0.0
2014-Sep-16 17:29S 29°53' E 031°00'0 0.0
2014-Sep-16 14:29S 29°53' E 031°00'0 0.0
2014-Sep-16 13:17S 29°53' E 031°00'0 0.0
2014-Sep-16 12:17S 29°53' E 031°00'0 0.0
2014-Sep-16 11:17S 29°53' E 031°00'0 0.0
2014-Sep-16 10:29S 29°53' E 031°00'0 0.0
2014-Sep-16 06:29S 29°53' E 031°00'2 2.7
2014-Sep-16 05:34S 29°53' E 031°03'4 4.3
2014-Sep-16 04:34S 29°49' E 031°05'1 0.9
2014-Sep-16 03:34S 29°48' E 031°06'3 3.1
2014-Sep-16 02:33S 29°45' E 031°07'1 0.8
2014-Sep-16 01:33S 29°44' E 031°07'0 0.2
2014-Sep-16 00:33S 29°44' E 031°07'2 1.9
2014-Sep-15 23:33S 29°43' E 031°08'2 1.7
2014-Sep-15 22:31S 29°41' E 031°09'0 0.0
2014-Sep-15 21:31S 29°41' E 031°09'0 0.0
2014-Sep-15 20:25S 29°41' E 031°09'0 0.0
2014-Sep-15 19:13S 29°41' E 031°09'0 0.0
2014-Sep-15 18:25S 29°41' E 031°09'0 0.0
2014-Sep-15 17:25S 29°41' E 031°09'0 0.0
2014-Sep-15 16:31S 29°41' E 031°09'0 0.0
2014-Sep-15 15:31S 29°41' E 031°09'0 0.0
2014-Sep-15 14:31S 29°41' E 031°09'0 0.0
2014-Sep-15 13:19S 29°41' E 031°09'0 0.0
2014-Sep-15 12:25S 29°41' E 031°09'0 0.0
2014-Sep-15 11:31S 29°41' E 031°09'0 0.0
2014-Sep-15 10:19S 29°41' E 031°09'0 0.2
2014-Sep-15 09:31S 29°41' E 031°09'0 0.0
2014-Sep-15 08:25S 29°41' E 031°09'0 0.0
2014-Sep-15 07:25S 29°41' E 031°09'0 0.0
2014-Sep-15 06:31S 29°41' E 031°09'0 0.0
2014-Sep-15 05:25S 29°41' E 031°09'0 0.1
2014-Sep-15 04:19S 29°41' E 031°09'0 0.1
2014-Sep-15 03:19S 29°41' E 031°09'0 0.1
2014-Sep-15 02:25S 29°41' E 031°09'0 0.0
2014-Sep-15 01:31S 29°41' E 031°09'0 0.0
2014-Sep-15 00:31S 29°41' E 031°09'0 0.0
2014-Sep-14 23:31S 29°41' E 031°09'0 0.0
2014-Sep-14 22:31S 29°41' E 031°09'0 0.1
2014-Sep-14 21:31S 29°41' E 031°09'0 0.0
2014-Sep-14 20:25S 29°41' E 031°09'0 0.0
2014-Sep-14 19:25S 29°41' E 031°09'0 0.0
2014-Sep-14 18:31S 29°41' E 031°09'0 0.0
2014-Sep-14 17:19S 29°41' E 031°09'0 0.0
2014-Sep-14 16:31S 29°41' E 031°09'0 0.0
2014-Sep-14 15:31S 29°41' E 031°09'0 0.0
2014-Sep-14 14:31S 29°41' E 031°09'0 0.0
2014-Sep-14 13:31S 29°41' E 031°09'0 0.0
2014-Sep-14 12:13S 29°41' E 031°09'0 0.0
2014-Sep-14 11:31S 29°41' E 031°09'0 0.0
2014-Sep-14 10:25S 29°41' E 031°09'0 0.0
2014-Sep-14 09:31S 29°41' E 031°09'0 0.0
2014-Sep-14 08:31S 29°41' E 031°09'0 0.0
2014-Sep-14 07:31S 29°41' E 031°09'0 0.0
2014-Sep-14 06:25S 29°41' E 031°09'0 0.0
2014-Sep-14 05:25S 29°41' E 031°09'0 0.0
2014-Sep-14 04:31S 29°41' E 031°09'0 0.0
2014-Sep-14 03:25S 29°41' E 031°09'0 0.0
2014-Sep-14 02:31S 29°41' E 031°09'0 0.1
2014-Sep-14 01:31S 29°41' E 031°09'0 0.0
2014-Sep-13 21:31S 29°41' E 031°09'0 0.0
2014-Sep-13 20:31S 29°41' E 031°09'0 0.0
2014-Sep-13 19:25S 29°41' E 031°09'0 0.0
2014-Sep-13 18:31S 29°41' E 031°09'0 0.0
2014-Sep-13 17:31S 29°41' E 031°09'0 0.0
2014-Sep-13 16:25S 29°41' E 031°09'0 0.0
2014-Sep-13 15:31S 29°41' E 031°09'0 0.0
2014-Sep-13 14:31S 29°41' E 031°09'0 0.0
2014-Sep-13 13:19S 29°41' E 031°09'0 0.0
2014-Sep-13 12:25S 29°41' E 031°09'0 0.0
2014-Sep-13 11:25S 29°41' E 031°09'0 0.0
2014-Sep-13 10:07S 29°41' E 031°09'0 0.0
2014-Sep-13 09:31S 29°41' E 031°09'0 0.0
2014-Sep-13 08:31S 29°41' E 031°09'0 0.0
2014-Sep-13 07:31S 29°41' E 031°09'0 0.0
2014-Sep-13 06:31S 29°41' E 031°09'0 0.0
2014-Sep-13 05:19S 29°41' E 031°09'0 0.0
2014-Sep-13 04:31S 29°41' E 031°09'0 0.1
2014-Sep-13 03:31S 29°41' E 031°09'0 0.1
2014-Sep-13 02:31S 29°41' E 031°09'0 0.0
2014-Sep-13 01:25S 29°41' E 031°09'0 0.0
2014-Sep-13 00:25S 29°41' E 031°09'0 0.0
2014-Sep-12 23:31S 29°41' E 031°09'3 3.1
2014-Sep-12 22:33S 29°44' E 031°09'9 9.0
2014-Sep-12 21:33S 29°53' E 031°10'10 9.9
2014-Sep-12 20:33S 30°02' E 031°05'1010.2
2014-Sep-12 19:33S 30°10' E 030°58'1210.7
2014-Sep-12 18:25S 30°21' E 030°51'26 9.1
2014-Sep-12 15:32S 30°43' E 030°36'8 7.6
2014-Sep-12 14:30S 30°50' E 030°31'10 7.2
2014-Sep-12 13:05S 30°59' E 030°24'10 6.5
2014-Sep-12 11:33S 31°07' E 030°18'13 6.2
2014-Sep-12 09:30S 31°17' E 030°09'233 7.7
2014-Sep-11 03:13S 33°51' E 026°41'7 7.2
2014-Sep-11 02:15S 33°54' E 026°34'6 7.2
2014-Sep-11 01:25S 33°55' E 026°27'17 7.6
2014-Sep-10 23:13S 33°55' E 026°06'9 8.4
2014-Sep-10 22:07S 33°55' E 025°55'66 4.2
2014-Sep-10 06:11S 34°24' E 024°43'13515.1
2014-Sep-09 21:13S 34°42' E 022°01'4014.9
2014-Sep-09 18:31S 34°46' E 021°12'1414.9
2014-Sep-09 17:33S 34°47' E 020°55'1615.1
2014-Sep-09 16:27S 34°50' E 020°35'  
Track history (hours):
 
Tides and Currents Weather Stations Pressure Air Temp Water Temp Dewpoint Dewpoint Depression Visibility Wind Speed Wind Dir Waves Ship Positions

Maersk Visby

Last reported at 2014-Sep-19 12:33 UTC. Time now 2014-Sep-20 20:03 UTC.
Position S 30°15' E 030°54'.

Length 180 m; draft 9.1 m.

Type: Ship (hazmat cat C). MMSI: 564979000.

Date/timePositionNaut miles runAvg speedWind from/ knotsBaromVisibWave heightAir tempDewpointWater temp
2014-Sep-19 12:33S 30°15' E 030°54'1010.1
2014-Sep-19 11:32S 30°06' E 031°01'1110.7
2014-Sep-19 10:32S 29°58' E 031°08'7 6.8
2014-Sep-19 09:33S 29°52' E 031°03'3 2.1
2014-Sep-19 08:15S 29°53' E 031°00'0 0.0
2014-Sep-19 06:23S 29°53' E 031°00'0 0.0
2014-Sep-19 03:05S 29°53' E 031°00'0 0.0
2014-Sep-19 02:29S 29°53' E 031°00'0 0.0
2014-Sep-19 01:29S 29°53' E 031°00'0 0.0
2014-Sep-19 00:11S 29°53' E 031°00'0 0.0
2014-Sep-18 23:23S 29°53' E 031°00'0 0.0
2014-Sep-18 22:23S 29°53' E 031°00'0 0.0
2014-Sep-18 21:23S 29°53' E 031°00'0 0.0
2014-Sep-18 20:11S 29°53' E 031°00'0 0.0
2014-Sep-18 19:17S 29°53' E 031°00'0 0.0
2014-Sep-18 18:17S 29°53' E 031°00'0 0.0
2014-Sep-18 17:29S 29°53' E 031°00'0 0.0
2014-Sep-18 16:11S 29°53' E 031°00'0 0.0
2014-Sep-18 15:11S 29°53' E 031°00'0 0.0
2014-Sep-18 14:29S 29°53' E 031°00'0 0.0
2014-Sep-18 13:23S 29°53' E 031°00'0 0.0
2014-Sep-18 12:29S 29°53' E 031°00'0 0.0
2014-Sep-18 11:29S 29°53' E 031°00'0 0.0
2014-Sep-18 10:29S 29°53' E 031°00'0 0.0
2014-Sep-18 09:23S 29°53' E 031°00'0 0.0
2014-Sep-18 08:29S 29°53' E 031°00'0 0.0
2014-Sep-18 07:29S 29°53' E 031°00'0 0.0
2014-Sep-18 06:17S 29°53' E 031°00'0 0.0
2014-Sep-18 05:29S 29°53' E 031°00'0 0.0
2014-Sep-18 04:23S 29°53' E 031°00'0 0.0
2014-Sep-18 03:05S 29°53' E 031°00'0 0.0
2014-Sep-18 02:23S 29°53' E 031°00'0 0.0
2014-Sep-18 01:29S 29°53' E 031°00'0 0.0
2014-Sep-18 00:23S 29°53' E 031°00'0 0.0
2014-Sep-17 23:17S 29°53' E 031°00'0 0.0
2014-Sep-17 20:23S 29°53' E 031°00'0 0.0
2014-Sep-17 19:29S 29°53' E 031°00'0 0.0
2014-Sep-17 17:11S 29°53' E 031°00'0 0.0
2014-Sep-17 16:29S 29°53' E 031°00'0 0.0
2014-Sep-17 15:29S 29°53' E 031°00'0 0.0
2014-Sep-17 14:29S 29°53' E 031°00'0 0.0
2014-Sep-17 11:05S 29°53' E 031°00'0 0.0
2014-Sep-17 10:29S 29°53' E 031°00'0 0.0
2014-Sep-17 08:29S 29°53' E 031°00'0 0.0
2014-Sep-17 07:23S 29°53' E 031°00'0 0.0
2014-Sep-17 06:11S 29°53' E 031°00'0 0.0
2014-Sep-17 05:05S 29°53' E 031°00'0 0.0
2014-Sep-17 04:23S 29°53' E 031°00'0 0.0
2014-Sep-17 03:11S 29°53' E 031°00'0 0.0
2014-Sep-17 02:23S 29°53' E 031°00'0 0.0
2014-Sep-17 01:29S 29°53' E 031°00'0 0.0
2014-Sep-17 00:11S 29°53' E 031°00'0 0.0
2014-Sep-16 22:23S 29°53' E 031°00'0 0.0
2014-Sep-16 21:23S 29°53' E 031°00'0 0.0
2014-Sep-16 20:11S 29°53' E 031°00'0 0.0
2014-Sep-16 19:17S 29°53' E 031°00'0 0.0
2014-Sep-16 18:23S 29°53' E 031°00'0 0.0
2014-Sep-16 17:29S 29°53' E 031°00'0 0.0
2014-Sep-16 14:29S 29°53' E 031°00'0 0.0
2014-Sep-16 13:17S 29°53' E 031°00'0 0.0
2014-Sep-16 12:17S 29°53' E 031°00'0 0.0
2014-Sep-16 11:17S 29°53' E 031°00'0 0.0
2014-Sep-16 10:29S 29°53' E 031°00'0 0.0
2014-Sep-16 06:29S 29°53' E 031°00'2 2.7
2014-Sep-16 05:34S 29°53' E 031°03'4 4.3
2014-Sep-16 04:34S 29°49' E 031°05'1 0.9
2014-Sep-16 03:34S 29°48' E 031°06'3 3.1
2014-Sep-16 02:33S 29°45' E 031°07'1 0.8
2014-Sep-16 01:33S 29°44' E 031°07'0 0.2
2014-Sep-16 00:33S 29°44' E 031°07'2 1.9
2014-Sep-15 23:33S 29°43' E 031°08'2 1.7
2014-Sep-15 22:31S 29°41' E 031°09'0 0.0
2014-Sep-15 21:31S 29°41' E 031°09'0 0.0
2014-Sep-15 20:25S 29°41' E 031°09'0 0.0
2014-Sep-15 19:13S 29°41' E 031°09'0 0.0
2014-Sep-15 18:25S 29°41' E 031°09'0 0.0
2014-Sep-15 17:25S 29°41' E 031°09'0 0.0
2014-Sep-15 16:31S 29°41' E 031°09'0 0.0
2014-Sep-15 15:31S 29°41' E 031°09'0 0.0
2014-Sep-15 14:31S 29°41' E 031°09'0 0.0
2014-Sep-15 13:19S 29°41' E 031°09'0 0.0
2014-Sep-15 12:25S 29°41' E 031°09'0 0.0
2014-Sep-15 11:31S 29°41' E 031°09'0 0.0
2014-Sep-15 10:19S 29°41' E 031°09'0 0.2
2014-Sep-15 09:31S 29°41' E 031°09'0 0.0
2014-Sep-15 08:25S 29°41' E 031°09'0 0.0
2014-Sep-15 07:25S 29°41' E 031°09'0 0.0
2014-Sep-15 06:31S 29°41' E 031°09'0 0.0
2014-Sep-15 05:25S 29°41' E 031°09'0 0.1
2014-Sep-15 04:19S 29°41' E 031°09'0 0.1
2014-Sep-15 03:19S 29°41' E 031°09'0 0.1
2014-Sep-15 02:25S 29°41' E 031°09'0 0.0
2014-Sep-15 01:31S 29°41' E 031°09'0 0.0
2014-Sep-15 00:31S 29°41' E 031°09'0 0.0
2014-Sep-14 23:31S 29°41' E 031°09'0 0.0
2014-Sep-14 22:31S 29°41' E 031°09'0 0.1
2014-Sep-14 21:31S 29°41' E 031°09'0 0.0
2014-Sep-14 20:25S 29°41' E 031°09'0 0.0
2014-Sep-14 19:25S 29°41' E 031°09'0 0.0
2014-Sep-14 18:31S 29°41' E 031°09'0 0.0
2014-Sep-14 17:19S 29°41' E 031°09'0 0.0
2014-Sep-14 16:31S 29°41' E 031°09'0 0.0
2014-Sep-14 15:31S 29°41' E 031°09'0 0.0
2014-Sep-14 14:31S 29°41' E 031°09'0 0.0
2014-Sep-14 13:31S 29°41' E 031°09'0 0.0
2014-Sep-14 12:13S 29°41' E 031°09'0 0.0
2014-Sep-14 11:31S 29°41' E 031°09'0 0.0
2014-Sep-14 10:25S 29°41' E 031°09'0 0.0
2014-Sep-14 09:31S 29°41' E 031°09'0 0.0
2014-Sep-14 08:31S 29°41' E 031°09'0 0.0
2014-Sep-14 07:31S 29°41' E 031°09'0 0.0
2014-Sep-14 06:25S 29°41' E 031°09'0 0.0
2014-Sep-14 05:25S 29°41' E 031°09'0 0.0
2014-Sep-14 04:31S 29°41' E 031°09'0 0.0
2014-Sep-14 03:25S 29°41' E 031°09'0 0.0
2014-Sep-14 02:31S 29°41' E 031°09'0 0.1
2014-Sep-14 01:31S 29°41' E 031°09'0 0.0
2014-Sep-13 21:31S 29°41' E 031°09'0 0.0
2014-Sep-13 20:31S 29°41' E 031°09'0 0.0
2014-Sep-13 19:25S 29°41' E 031°09'0 0.0
2014-Sep-13 18:31S 29°41' E 031°09'0 0.0
2014-Sep-13 17:31S 29°41' E 031°09'0 0.0
2014-Sep-13 16:25S 29°41' E 031°09'0 0.0
2014-Sep-13 15:31S 29°41' E 031°09'0 0.0
2014-Sep-13 14:31S 29°41' E 031°09'0 0.0
2014-Sep-13 13:19S 29°41' E 031°09'0 0.0
2014-Sep-13 12:25S 29°41' E 031°09'0 0.0
2014-Sep-13 11:25S 29°41' E 031°09'0 0.0
2014-Sep-13 10:07S 29°41' E 031°09'0 0.0
2014-Sep-13 09:31S 29°41' E 031°09'0 0.0
2014-Sep-13 08:31S 29°41' E 031°09'0 0.0
2014-Sep-13 07:31S 29°41' E 031°09'0 0.0
2014-Sep-13 06:31S 29°41' E 031°09'0 0.0
2014-Sep-13 05:19S 29°41' E 031°09'0 0.0
2014-Sep-13 04:31S 29°41' E 031°09'0 0.1
2014-Sep-13 03:31S 29°41' E 031°09'0 0.1
2014-Sep-13 02:31S 29°41' E 031°09'0 0.0
2014-Sep-13 01:25S 29°41' E 031°09'0 0.0
2014-Sep-13 00:25S 29°41' E 031°09'0 0.0
2014-Sep-12 23:31S 29°41' E 031°09'3 3.1
2014-Sep-12 22:33S 29°44' E 031°09'9 9.0
2014-Sep-12 21:33S 29°53' E 031°10'10 9.9
2014-Sep-12 20:33S 30°02' E 031°05'1010.2
2014-Sep-12 19:33S 30°10' E 030°58'1210.7
2014-Sep-12 18:25S 30°21' E 030°51'26 9.1
2014-Sep-12 15:32S 30°43' E 030°36'8 7.6
2014-Sep-12 14:30S 30°50' E 030°31'10 7.2
2014-Sep-12 13:05S 30°59' E 030°24'10 6.5
2014-Sep-12 11:33S 31°07' E 030°18'13 6.2
2014-Sep-12 09:30S 31°17' E 030°09'233 7.7
2014-Sep-11 03:13S 33°51' E 026°41'7 7.2
2014-Sep-11 02:15S 33°54' E 026°34'6 7.2
2014-Sep-11 01:25S 33°55' E 026°27'17 7.6
2014-Sep-10 23:13S 33°55' E 026°06'9 8.4
2014-Sep-10 22:07S 33°55' E 025°55'66 4.2
2014-Sep-10 06:11S 34°24' E 024°43'13515.1
2014-Sep-09 21:13S 34°42' E 022°01'4014.9
2014-Sep-09 18:31S 34°46' E 021°12'1414.9
2014-Sep-09 17:33S 34°47' E 020°55'1615.1
2014-Sep-09 16:27S 34°50' E 020°35'  

Dump ship's entire track history